sensor_id;sensor_type;location;lat;lon;timestamp;temperature;humidity
51500;DHT22;39101;53.478;6.158;2023-06-22T00:01:02;15.60;99.90
51500;DHT22;39101;53.478;6.158;2023-06-22T00:03:28;15.60;99.90
51500;DHT22;39101;53.478;6.158;2023-06-22T00:09:03;15.60;99.90
51500;DHT22;39101;53.478;6.158;2023-06-22T00:11:29;15.60;99.90
51500;DHT22;39101;53.478;6.158;2023-06-22T00:13:54;15.60;99.90
51500;DHT22;39101;53.478;6.158;2023-06-22T00:16:20;15.70;99.90
51500;DHT22;39101;53.478;6.158;2023-06-22T00:18:47;15.60;99.90
51500;DHT22;39101;53.478;6.158;2023-06-22T00:21:15;15.60;99.90
51500;DHT22;39101;53.478;6.158;2023-06-22T00:23:41;15.60;99.90
51500;DHT22;39101;53.478;6.158;2023-06-22T00:26:07;15.50;99.90
51500;DHT22;39101;53.478;6.158;2023-06-22T00:28:33;15.60;99.90
51500;DHT22;39101;53.478;6.158;2023-06-22T00:31:00;15.50;99.90
51500;DHT22;39101;53.478;6.158;2023-06-22T00:33:26;15.40;99.90
51500;DHT22;39101;53.478;6.158;2023-06-22T00:35:52;15.50;99.90
51500;DHT22;39101;53.478;6.158;2023-06-22T00:38:19;15.50;99.90
51500;DHT22;39101;53.478;6.158;2023-06-22T00:40:46;15.50;99.90
51500;DHT22;39101;53.478;6.158;2023-06-22T00:43:30;15.40;99.90
51500;DHT22;39101;53.478;6.158;2023-06-22T00:45:56;15.40;99.90
51500;DHT22;39101;53.478;6.158;2023-06-22T00:48:22;15.40;99.90
51500;DHT22;39101;53.478;6.158;2023-06-22T00:50:48;15.40;99.90
51500;DHT22;39101;53.478;6.158;2023-06-22T00:53:16;15.40;99.90
51500;DHT22;39101;53.478;6.158;2023-06-22T00:55:44;15.40;99.90
51500;DHT22;39101;53.478;6.158;2023-06-22T00:58:12;15.40;99.90
51500;DHT22;39101;53.478;6.158;2023-06-22T01:00:40;15.30;99.90
51500;DHT22;39101;53.478;6.158;2023-06-22T01:03:07;15.20;99.90
51500;DHT22;39101;53.478;6.158;2023-06-22T01:05:37;15.00;99.90
51500;DHT22;39101;53.478;6.158;2023-06-22T01:10:48;14.70;99.90
51500;DHT22;39101;53.478;6.158;2023-06-22T01:13:31;14.50;99.90
51500;DHT22;39101;53.478;6.158;2023-06-22T01:16:14;14.40;99.90
51500;DHT22;39101;53.478;6.158;2023-06-22T01:18:43;14.40;99.90
51500;DHT22;39101;53.478;6.158;2023-06-22T01:21:14;14.40;99.90
51500;DHT22;39101;53.478;6.158;2023-06-22T01:26:20;14.40;99.90
51500;DHT22;39101;53.478;6.158;2023-06-22T01:28:50;14.40;99.90
51500;DHT22;39101;53.478;6.158;2023-06-22T01:31:26;14.30;99.90
51500;DHT22;39101;53.478;6.158;2023-06-22T01:34:05;14.30;99.90
51500;DHT22;39101;53.478;6.158;2023-06-22T01:36:32;14.40;99.90
51500;DHT22;39101;53.478;6.158;2023-06-22T01:38:59;14.40;99.90
51500;DHT22;39101;53.478;6.158;2023-06-22T01:41:29;14.40;99.90
51500;DHT22;39101;53.478;6.158;2023-06-22T01:43:58;14.70;99.90
51500;DHT22;39101;53.478;6.158;2023-06-22T01:46:24;14.50;99.90
51500;DHT22;39101;53.478;6.158;2023-06-22T01:48:51;14.60;99.90
51500;DHT22;39101;53.478;6.158;2023-06-22T01:51:18;14.50;99.90
51500;DHT22;39101;53.478;6.158;2023-06-22T01:53:44;14.70;99.90
51500;DHT22;39101;53.478;6.158;2023-06-22T01:56:09;14.70;99.90
51500;DHT22;39101;53.478;6.158;2023-06-22T01:58:42;14.50;99.90
51500;DHT22;39101;53.478;6.158;2023-06-22T02:01:12;14.60;99.90
51500;DHT22;39101;53.478;6.158;2023-06-22T02:03:50;14.60;99.90
51500;DHT22;39101;53.478;6.158;2023-06-22T02:06:39;14.70;99.90
51500;DHT22;39101;53.478;6.158;2023-06-22T02:09:12;14.70;99.90
51500;DHT22;39101;53.478;6.158;2023-06-22T02:11:42;14.60;99.90
51500;DHT22;39101;53.478;6.158;2023-06-22T02:14:08;14.70;99.90
51500;DHT22;39101;53.478;6.158;2023-06-22T02:16:35;14.60;99.90
51500;DHT22;39101;53.478;6.158;2023-06-22T02:19:02;14.70;99.90
51500;DHT22;39101;53.478;6.158;2023-06-22T02:21:32;14.60;99.90
51500;DHT22;39101;53.478;6.158;2023-06-22T02:23:58;14.70;99.90
51500;DHT22;39101;53.478;6.158;2023-06-22T02:26:25;14.80;99.90
51500;DHT22;39101;53.478;6.158;2023-06-22T02:28:55;14.70;99.90
51500;DHT22;39101;53.478;6.158;2023-06-22T02:31:22;14.80;99.90
51500;DHT22;39101;53.478;6.158;2023-06-22T02:33:58;14.80;99.90
51500;DHT22;39101;53.478;6.158;2023-06-22T02:36:24;14.90;99.90
51500;DHT22;39101;53.478;6.158;2023-06-22T02:38:54;14.80;99.90
51500;DHT22;39101;53.478;6.158;2023-06-22T02:41:21;14.90;99.90
51500;DHT22;39101;53.478;6.158;2023-06-22T02:43:47;14.80;99.90
51500;DHT22;39101;53.478;6.158;2023-06-22T02:46:15;14.90;99.90
51500;DHT22;39101;53.478;6.158;2023-06-22T02:48:41;14.80;99.90
51500;DHT22;39101;53.478;6.158;2023-06-22T02:51:07;14.80;99.90
51500;DHT22;39101;53.478;6.158;2023-06-22T02:53:32;14.90;99.90
51500;DHT22;39101;53.478;6.158;2023-06-22T02:55:58;14.80;99.90
51500;DHT22;39101;53.478;6.158;2023-06-22T02:58:26;14.90;99.90
51500;DHT22;39101;53.478;6.158;2023-06-22T03:00:52;14.80;99.90
51500;DHT22;39101;53.478;6.158;2023-06-22T03:03:19;15.00;99.90
51500;DHT22;39101;53.478;6.158;2023-06-22T03:05:45;14.90;99.90
51500;DHT22;39101;53.478;6.158;2023-06-22T03:08:11;15.00;99.90
51500;DHT22;39101;53.478;6.158;2023-06-22T03:10:36;15.00;99.90
51500;DHT22;39101;53.478;6.158;2023-06-22T03:13:02;15.00;99.90
51500;DHT22;39101;53.478;6.158;2023-06-22T03:15:28;14.90;99.90
51500;DHT22;39101;53.478;6.158;2023-06-22T03:17:58;15.00;99.90
51500;DHT22;39101;53.478;6.158;2023-06-22T03:20:23;14.80;99.90
51500;DHT22;39101;53.478;6.158;2023-06-22T03:22:50;14.90;99.90
51500;DHT22;39101;53.478;6.158;2023-06-22T03:25:16;14.90;99.90
51500;DHT22;39101;53.478;6.158;2023-06-22T03:27:42;14.80;99.90
51500;DHT22;39101;53.478;6.158;2023-06-22T03:30:13;14.90;99.90
51500;DHT22;39101;53.478;6.158;2023-06-22T03:32:39;14.90;99.90
51500;DHT22;39101;53.478;6.158;2023-06-22T03:35:05;14.80;99.90
51500;DHT22;39101;53.478;6.158;2023-06-22T03:37:31;14.90;99.90
51500;DHT22;39101;53.478;6.158;2023-06-22T03:39:57;14.80;99.90
51500;DHT22;39101;53.478;6.158;2023-06-22T03:42:23;14.90;99.90
51500;DHT22;39101;53.478;6.158;2023-06-22T03:44:48;14.80;99.90
51500;DHT22;39101;53.478;6.158;2023-06-22T03:47:14;14.80;99.90
51500;DHT22;39101;53.478;6.158;2023-06-22T03:49:40;14.70;99.90
51500;DHT22;39101;53.478;6.158;2023-06-22T03:52:06;14.80;99.90
51500;DHT22;39101;53.478;6.158;2023-06-22T03:54:31;14.70;99.90
51500;DHT22;39101;53.478;6.158;2023-06-22T03:56:58;14.80;99.90
51500;DHT22;39101;53.478;6.158;2023-06-22T03:59:25;14.80;99.90
51500;DHT22;39101;53.478;6.158;2023-06-22T04:01:53;14.90;99.90
51500;DHT22;39101;53.478;6.158;2023-06-22T04:04:18;15.00;99.90
51500;DHT22;39101;53.478;6.158;2023-06-22T04:06:44;14.90;99.90
51500;DHT22;39101;53.478;6.158;2023-06-22T04:09:10;14.90;99.90
51500;DHT22;39101;53.478;6.158;2023-06-22T04:11:36;15.10;99.90
51500;DHT22;39101;53.478;6.158;2023-06-22T04:14:03;15.10;99.90
51500;DHT22;39101;53.478;6.158;2023-06-22T04:16:28;15.10;99.90
51500;DHT22;39101;53.478;6.158;2023-06-22T04:18:54;15.20;99.90
51500;DHT22;39101;53.478;6.158;2023-06-22T04:21:20;15.20;99.90
51500;DHT22;39101;53.478;6.158;2023-06-22T04:23:46;15.30;99.90
51500;DHT22;39101;53.478;6.158;2023-06-22T04:26:12;15.40;99.90
51500;DHT22;39101;53.478;6.158;2023-06-22T04:28:40;15.30;99.90
51500;DHT22;39101;53.478;6.158;2023-06-22T04:34:43;15.50;99.90
51500;DHT22;39101;53.478;6.158;2023-06-22T04:37:09;15.50;99.90
51500;DHT22;39101;53.478;6.158;2023-06-22T04:39:50;15.60;99.90
51500;DHT22;39101;53.478;6.158;2023-06-22T04:42:15;15.80;99.90
51500;DHT22;39101;53.478;6.158;2023-06-22T04:44:41;15.70;99.90
51500;DHT22;39101;53.478;6.158;2023-06-22T04:47:08;15.80;99.90
51500;DHT22;39101;53.478;6.158;2023-06-22T04:49:35;16.00;99.90
51500;DHT22;39101;53.478;6.158;2023-06-22T04:52:09;16.00;99.90
51500;DHT22;39101;53.478;6.158;2023-06-22T04:54:36;16.00;99.90
51500;DHT22;39101;53.478;6.158;2023-06-22T04:57:03;16.00;99.90
51500;DHT22;39101;53.478;6.158;2023-06-22T04:59:31;16.10;99.90
51500;DHT22;39101;53.478;6.158;2023-06-22T05:01:59;16.30;99.90
51500;DHT22;39101;53.478;6.158;2023-06-22T05:04:26;16.40;99.90
51500;DHT22;39101;53.478;6.158;2023-06-22T05:06:53;16.50;99.90
51500;DHT22;39101;53.478;6.158;2023-06-22T05:09:20;16.50;99.90
51500;DHT22;39101;53.478;6.158;2023-06-22T05:11:46;16.50;99.90
51500;DHT22;39101;53.478;6.158;2023-06-22T05:14:24;16.60;99.90
51500;DHT22;39101;53.478;6.158;2023-06-22T05:16:52;16.70;99.90
51500;DHT22;39101;53.478;6.158;2023-06-22T05:19:18;16.90;99.90
51500;DHT22;39101;53.478;6.158;2023-06-22T05:21:44;16.90;99.90
51500;DHT22;39101;53.478;6.158;2023-06-22T05:24:10;17.00;99.90
51500;DHT22;39101;53.478;6.158;2023-06-22T05:26:35;17.00;99.90
51500;DHT22;39101;53.478;6.158;2023-06-22T05:29:02;17.10;99.90
51500;DHT22;39101;53.478;6.158;2023-06-22T05:31:28;17.10;99.90
51500;DHT22;39101;53.478;6.158;2023-06-22T05:33:56;17.20;99.90
51500;DHT22;39101;53.478;6.158;2023-06-22T05:36:22;17.20;99.90
51500;DHT22;39101;53.478;6.158;2023-06-22T05:38:51;17.30;99.90
51500;DHT22;39101;53.478;6.158;2023-06-22T05:41:21;17.50;99.90
51500;DHT22;39101;53.478;6.158;2023-06-22T05:43:48;17.60;99.90
51500;DHT22;39101;53.478;6.158;2023-06-22T05:46:14;17.60;99.90
51500;DHT22;39101;53.478;6.158;2023-06-22T05:48:43;17.60;99.90
51500;DHT22;39101;53.478;6.158;2023-06-22T05:51:09;17.60;99.90
51500;DHT22;39101;53.478;6.158;2023-06-22T05:53:34;17.80;99.90
51500;DHT22;39101;53.478;6.158;2023-06-22T05:56:00;17.90;99.90
51500;DHT22;39101;53.478;6.158;2023-06-22T05:58:26;17.90;99.90
51500;DHT22;39101;53.478;6.158;2023-06-22T06:00:53;18.00;99.90
51500;DHT22;39101;53.478;6.158;2023-06-22T06:03:18;17.90;99.90
51500;DHT22;39101;53.478;6.158;2023-06-22T06:05:44;18.00;99.90
51500;DHT22;39101;53.478;6.158;2023-06-22T06:08:11;18.20;99.90
51500;DHT22;39101;53.478;6.158;2023-06-22T06:10:37;18.10;99.90
51500;DHT22;39101;53.478;6.158;2023-06-22T06:13:03;18.10;99.90
51500;DHT22;39101;53.478;6.158;2023-06-22T06:15:31;18.20;99.90
51500;DHT22;39101;53.478;6.158;2023-06-22T06:17:57;18.30;99.90
51500;DHT22;39101;53.478;6.158;2023-06-22T06:20:24;18.50;99.90
51500;DHT22;39101;53.478;6.158;2023-06-22T06:22:50;18.50;99.90
51500;DHT22;39101;53.478;6.158;2023-06-22T06:25:16;18.50;99.90
51500;DHT22;39101;53.478;6.158;2023-06-22T06:27:45;18.80;99.90
51500;DHT22;39101;53.478;6.158;2023-06-22T06:30:12;18.70;99.90
51500;DHT22;39101;53.478;6.158;2023-06-22T06:32:38;18.90;99.90
51500;DHT22;39101;53.478;6.158;2023-06-22T06:35:06;18.80;99.90
51500;DHT22;39101;53.478;6.158;2023-06-22T06:37:36;18.80;99.90
51500;DHT22;39101;53.478;6.158;2023-06-22T06:40:04;19.00;99.90
51500;DHT22;39101;53.478;6.158;2023-06-22T06:42:45;18.90;99.90
51500;DHT22;39101;53.478;6.158;2023-06-22T06:45:19;19.00;99.90
51500;DHT22;39101;53.478;6.158;2023-06-22T06:47:46;19.00;99.90
51500;DHT22;39101;53.478;6.158;2023-06-22T06:50:12;19.00;99.90
51500;DHT22;39101;53.478;6.158;2023-06-22T06:52:38;18.90;99.90
51500;DHT22;39101;53.478;6.158;2023-06-22T06:55:04;19.00;99.90
51500;DHT22;39101;53.478;6.158;2023-06-22T06:57:30;19.00;99.90
51500;DHT22;39101;53.478;6.158;2023-06-22T06:59:56;19.10;99.90
51500;DHT22;39101;53.478;6.158;2023-06-22T07:02:39;19.10;99.90
51500;DHT22;39101;53.478;6.158;2023-06-22T07:05:05;19.00;99.90
51500;DHT22;39101;53.478;6.158;2023-06-22T07:07:50;19.10;99.90
51500;DHT22;39101;53.478;6.158;2023-06-22T07:10:16;19.10;99.90
51500;DHT22;39101;53.478;6.158;2023-06-22T07:12:42;19.20;99.90
51500;DHT22;39101;53.478;6.158;2023-06-22T07:15:09;19.30;99.90
51500;DHT22;39101;53.478;6.158;2023-06-22T07:17:36;19.40;99.90
51500;DHT22;39101;53.478;6.158;2023-06-22T07:20:03;19.40;99.90
51500;DHT22;39101;53.478;6.158;2023-06-22T07:22:36;19.50;99.90
51500;DHT22;39101;53.478;6.158;2023-06-22T07:25:02;19.60;99.90
51500;DHT22;39101;53.478;6.158;2023-06-22T07:27:30;19.80;99.90
51500;DHT22;39101;53.478;6.158;2023-06-22T07:30:02;19.80;99.90
51500;DHT22;39101;53.478;6.158;2023-06-22T07:32:29;19.90;99.90
51500;DHT22;39101;53.478;6.158;2023-06-22T07:34:54;19.90;99.90
51500;DHT22;39101;53.478;6.158;2023-06-22T07:37:23;20.00;99.90
51500;DHT22;39101;53.478;6.158;2023-06-22T07:39:49;20.10;99.90
51500;DHT22;39101;53.478;6.158;2023-06-22T07:42:19;20.20;99.90
51500;DHT22;39101;53.478;6.158;2023-06-22T07:44:45;20.20;99.90
51500;DHT22;39101;53.478;6.158;2023-06-22T07:47:10;20.30;99.90
51500;DHT22;39101;53.478;6.158;2023-06-22T07:49:36;20.40;99.90
51500;DHT22;39101;53.478;6.158;2023-06-22T07:52:02;20.50;99.90
51500;DHT22;39101;53.478;6.158;2023-06-22T07:54:27;20.50;99.90
51500;DHT22;39101;53.478;6.158;2023-06-22T07:56:53;20.50;99.90
51500;DHT22;39101;53.478;6.158;2023-06-22T07:59:19;20.60;99.90
51500;DHT22;39101;53.478;6.158;2023-06-22T08:01:44;20.60;99.90
51500;DHT22;39101;53.478;6.158;2023-06-22T08:04:10;20.60;99.90
51500;DHT22;39101;53.478;6.158;2023-06-22T08:06:35;20.60;99.90
51500;DHT22;39101;53.478;6.158;2023-06-22T08:09:01;20.60;99.90
51500;DHT22;39101;53.478;6.158;2023-06-22T08:11:27;20.60;99.90
51500;DHT22;39101;53.478;6.158;2023-06-22T08:13:53;20.60;99.90
51500;DHT22;39101;53.478;6.158;2023-06-22T08:16:21;20.70;99.90
51500;DHT22;39101;53.478;6.158;2023-06-22T08:18:47;20.80;99.90
51500;DHT22;39101;53.478;6.158;2023-06-22T08:21:13;20.80;99.90
51500;DHT22;39101;53.478;6.158;2023-06-22T08:23:39;20.90;99.90
51500;DHT22;39101;53.478;6.158;2023-06-22T08:26:04;21.00;99.90
51500;DHT22;39101;53.478;6.158;2023-06-22T08:28:30;21.00;99.90
51500;DHT22;39101;53.478;6.158;2023-06-22T08:30:56;21.10;99.90
51500;DHT22;39101;53.478;6.158;2023-06-22T08:33:22;20.90;99.90
51500;DHT22;39101;53.478;6.158;2023-06-22T08:35:55;21.00;99.90
51500;DHT22;39101;53.478;6.158;2023-06-22T08:38:21;21.00;99.90
51500;DHT22;39101;53.478;6.158;2023-06-22T08:40:48;21.00;99.90
51500;DHT22;39101;53.478;6.158;2023-06-22T08:43:14;20.90;99.90
51500;DHT22;39101;53.478;6.158;2023-06-22T08:45:41;20.90;99.90
51500;DHT22;39101;53.478;6.158;2023-06-22T08:48:07;20.90;99.90
51500;DHT22;39101;53.478;6.158;2023-06-22T08:50:32;21.00;99.90
51500;DHT22;39101;53.478;6.158;2023-06-22T08:52:58;21.10;99.90
51500;DHT22;39101;53.478;6.158;2023-06-22T08:55:24;20.90;99.90
51500;DHT22;39101;53.478;6.158;2023-06-22T08:57:49;20.90;99.90
51500;DHT22;39101;53.478;6.158;2023-06-22T09:00:18;21.00;99.90
51500;DHT22;39101;53.478;6.158;2023-06-22T09:02:46;21.10;99.90
51500;DHT22;39101;53.478;6.158;2023-06-22T09:05:12;21.20;99.90
51500;DHT22;39101;53.478;6.158;2023-06-22T09:07:38;21.20;99.90
51500;DHT22;39101;53.478;6.158;2023-06-22T09:10:05;21.20;99.90
51500;DHT22;39101;53.478;6.158;2023-06-22T09:12:31;21.30;99.90
51500;DHT22;39101;53.478;6.158;2023-06-22T09:14:59;21.20;99.90
51500;DHT22;39101;53.478;6.158;2023-06-22T09:17:26;21.40;99.90
51500;DHT22;39101;53.478;6.158;2023-06-22T09:19:52;21.40;99.90
51500;DHT22;39101;53.478;6.158;2023-06-22T09:22:17;21.60;99.90
51500;DHT22;39101;53.478;6.158;2023-06-22T09:24:43;21.60;99.90
51500;DHT22;39101;53.478;6.158;2023-06-22T09:27:08;21.60;99.90
51500;DHT22;39101;53.478;6.158;2023-06-22T09:29:34;21.50;99.90
51500;DHT22;39101;53.478;6.158;2023-06-22T09:32:00;21.60;99.90
51500;DHT22;39101;53.478;6.158;2023-06-22T09:34:27;21.70;99.90
51500;DHT22;39101;53.478;6.158;2023-06-22T09:36:52;21.70;99.90
51500;DHT22;39101;53.478;6.158;2023-06-22T09:39:18;21.90;99.90
51500;DHT22;39101;53.478;6.158;2023-06-22T09:41:44;21.80;99.90
51500;DHT22;39101;53.478;6.158;2023-06-22T09:44:22;21.80;99.90
51500;DHT22;39101;53.478;6.158;2023-06-22T09:46:48;21.70;99.90
51500;DHT22;39101;53.478;6.158;2023-06-22T09:49:14;21.70;99.90
51500;DHT22;39101;53.478;6.158;2023-06-22T09:51:43;21.60;99.90
51500;DHT22;39101;53.478;6.158;2023-06-22T09:54:08;21.60;99.90
51500;DHT22;39101;53.478;6.158;2023-06-22T09:56:56;21.70;99.90
51500;DHT22;39101;53.478;6.158;2023-06-22T09:59:22;21.70;99.90
51500;DHT22;39101;53.478;6.158;2023-06-22T10:01:49;21.70;99.90
51500;DHT22;39101;53.478;6.158;2023-06-22T10:04:15;21.80;99.90
51500;DHT22;39101;53.478;6.158;2023-06-22T10:06:42;21.70;99.90
51500;DHT22;39101;53.478;6.158;2023-06-22T10:09:09;21.70;99.90
51500;DHT22;39101;53.478;6.158;2023-06-22T10:11:36;21.80;99.90
51500;DHT22;39101;53.478;6.158;2023-06-22T10:14:05;21.90;99.90
51500;DHT22;39101;53.478;6.158;2023-06-22T10:16:32;21.80;99.90
51500;DHT22;39101;53.478;6.158;2023-06-22T10:18:58;21.80;99.90
51500;DHT22;39101;53.478;6.158;2023-06-22T10:21:23;21.90;99.90
51500;DHT22;39101;53.478;6.158;2023-06-22T10:23:49;21.80;99.90
51500;DHT22;39101;53.478;6.158;2023-06-22T10:26:15;21.90;99.90
51500;DHT22;39101;53.478;6.158;2023-06-22T10:28:42;21.80;99.90
51500;DHT22;39101;53.478;6.158;2023-06-22T10:31:08;21.90;99.90
51500;DHT22;39101;53.478;6.158;2023-06-22T10:33:34;21.90;99.90
51500;DHT22;39101;53.478;6.158;2023-06-22T10:36:18;21.80;99.90
51500;DHT22;39101;53.478;6.158;2023-06-22T10:38:43;21.80;99.90
51500;DHT22;39101;53.478;6.158;2023-06-22T10:41:09;21.80;99.90
51500;DHT22;39101;53.478;6.158;2023-06-22T10:43:35;21.70;99.90
51500;DHT22;39101;53.478;6.158;2023-06-22T10:46:00;21.80;99.90
51500;DHT22;39101;53.478;6.158;2023-06-22T10:48:26;21.70;99.90
51500;DHT22;39101;53.478;6.158;2023-06-22T10:50:52;21.70;99.90
51500;DHT22;39101;53.478;6.158;2023-06-22T10:53:18;21.60;99.90
51500;DHT22;39101;53.478;6.158;2023-06-22T10:55:44;21.70;99.90
51500;DHT22;39101;53.478;6.158;2023-06-22T10:58:10;21.60;99.90
51500;DHT22;39101;53.478;6.158;2023-06-22T11:00:35;21.70;99.90
51500;DHT22;39101;53.478;6.158;2023-06-22T11:03:01;21.70;99.90
51500;DHT22;39101;53.478;6.158;2023-06-22T11:05:27;21.70;99.90
51500;DHT22;39101;53.478;6.158;2023-06-22T11:07:52;21.70;99.90
51500;DHT22;39101;53.478;6.158;2023-06-22T11:10:18;21.70;99.90
51500;DHT22;39101;53.478;6.158;2023-06-22T11:12:44;21.60;99.90
51500;DHT22;39101;53.478;6.158;2023-06-22T11:15:11;21.70;99.90
51500;DHT22;39101;53.478;6.158;2023-06-22T11:17:37;21.70;99.90
51500;DHT22;39101;53.478;6.158;2023-06-22T11:20:03;21.70;99.90
51500;DHT22;39101;53.478;6.158;2023-06-22T11:22:37;21.60;99.90
51500;DHT22;39101;53.478;6.158;2023-06-22T11:25:05;21.70;99.90
51500;DHT22;39101;53.478;6.158;2023-06-22T11:27:31;21.60;99.90
51500;DHT22;39101;53.478;6.158;2023-06-22T11:29:57;21.50;99.90
51500;DHT22;39101;53.478;6.158;2023-06-22T11:32:24;21.50;99.90
51500;DHT22;39101;53.478;6.158;2023-06-22T11:34:50;21.50;99.90
51500;DHT22;39101;53.478;6.158;2023-06-22T11:37:15;21.60;99.90
51500;DHT22;39101;53.478;6.158;2023-06-22T11:39:46;21.50;99.90
51500;DHT22;39101;53.478;6.158;2023-06-22T11:42:11;21.50;99.90
51500;DHT22;39101;53.478;6.158;2023-06-22T11:44:37;21.60;99.90
51500;DHT22;39101;53.478;6.158;2023-06-22T11:47:03;21.60;99.90
51500;DHT22;39101;53.478;6.158;2023-06-22T11:49:30;21.70;99.90
51500;DHT22;39101;53.478;6.158;2023-06-22T11:51:56;21.60;99.90
51500;DHT22;39101;53.478;6.158;2023-06-22T11:54:22;21.50;99.90
51500;DHT22;39101;53.478;6.158;2023-06-22T11:56:49;21.50;99.90
51500;DHT22;39101;53.478;6.158;2023-06-22T11:59:15;21.40;99.90
51500;DHT22;39101;53.478;6.158;2023-06-22T12:01:41;21.40;99.90
51500;DHT22;39101;53.478;6.158;2023-06-22T12:04:06;21.40;99.90
51500;DHT22;39101;53.478;6.158;2023-06-22T12:10:13;21.50;99.90
51500;DHT22;39101;53.478;6.158;2023-06-22T12:12:39;21.50;99.90
51500;DHT22;39101;53.478;6.158;2023-06-22T12:15:05;21.60;99.90
51500;DHT22;39101;53.478;6.158;2023-06-22T12:17:31;21.70;99.90
51500;DHT22;39101;53.478;6.158;2023-06-22T12:19:58;21.70;99.90
51500;DHT22;39101;53.478;6.158;2023-06-22T12:22:23;21.80;99.90
51500;DHT22;39101;53.478;6.158;2023-06-22T12:24:49;21.70;99.90
51500;DHT22;39101;53.478;6.158;2023-06-22T12:27:16;21.60;99.90
51500;DHT22;39101;53.478;6.158;2023-06-22T12:29:47;21.50;99.90
51500;DHT22;39101;53.478;6.158;2023-06-22T12:32:13;21.50;99.90
51500;DHT22;39101;53.478;6.158;2023-06-22T12:34:41;21.40;99.90
51500;DHT22;39101;53.478;6.158;2023-06-22T12:37:06;21.40;99.90
51500;DHT22;39101;53.478;6.158;2023-06-22T12:39:32;21.50;99.90
51500;DHT22;39101;53.478;6.158;2023-06-22T12:41:58;21.30;99.90
51500;DHT22;39101;53.478;6.158;2023-06-22T12:44:24;21.30;99.90
51500;DHT22;39101;53.478;6.158;2023-06-22T12:46:50;21.40;99.90
51500;DHT22;39101;53.478;6.158;2023-06-22T12:49:15;21.40;99.90
51500;DHT22;39101;53.478;6.158;2023-06-22T12:51:42;21.40;99.90
51500;DHT22;39101;53.478;6.158;2023-06-22T12:54:08;21.40;99.90
51500;DHT22;39101;53.478;6.158;2023-06-22T12:56:34;21.30;99.90
51500;DHT22;39101;53.478;6.158;2023-06-22T12:59:00;21.20;99.90
51500;DHT22;39101;53.478;6.158;2023-06-22T13:01:28;21.20;99.90
51500;DHT22;39101;53.478;6.158;2023-06-22T13:03:56;21.20;99.90
51500;DHT22;39101;53.478;6.158;2023-06-22T13:06:22;21.30;99.90
51500;DHT22;39101;53.478;6.158;2023-06-22T13:09:14;21.30;99.90
51500;DHT22;39101;53.478;6.158;2023-06-22T13:11:40;21.20;99.90
51500;DHT22;39101;53.478;6.158;2023-06-22T13:14:06;21.30;99.90
51500;DHT22;39101;53.478;6.158;2023-06-22T13:16:33;21.20;99.90
51500;DHT22;39101;53.478;6.158;2023-06-22T13:18:59;21.30;99.90
51500;DHT22;39101;53.478;6.158;2023-06-22T13:21:25;21.30;99.90
51500;DHT22;39101;53.478;6.158;2023-06-22T13:23:50;21.20;99.90
51500;DHT22;39101;53.478;6.158;2023-06-22T13:26:16;21.10;99.90
51500;DHT22;39101;53.478;6.158;2023-06-22T13:28:42;21.10;99.90
51500;DHT22;39101;53.478;6.158;2023-06-22T13:31:07;21.00;99.90
51500;DHT22;39101;53.478;6.158;2023-06-22T13:33:33;20.90;99.90
51500;DHT22;39101;53.478;6.158;2023-06-22T13:35:58;21.00;99.90
51500;DHT22;39101;53.478;6.158;2023-06-22T13:38:24;20.90;99.90
51500;DHT22;39101;53.478;6.158;2023-06-22T13:40:50;20.90;99.90
51500;DHT22;39101;53.478;6.158;2023-06-22T13:43:16;20.80;99.90
51500;DHT22;39101;53.478;6.158;2023-06-22T13:45:42;20.70;99.90
51500;DHT22;39101;53.478;6.158;2023-06-22T13:51:33;20.70;99.90
51500;DHT22;39101;53.478;6.158;2023-06-22T13:53:59;20.70;99.90
51500;DHT22;39101;53.478;6.158;2023-06-22T13:56:24;20.50;99.90
51500;DHT22;39101;53.478;6.158;2023-06-22T13:58:52;20.60;99.90
51500;DHT22;39101;53.478;6.158;2023-06-22T14:01:17;20.60;99.90
51500;DHT22;39101;53.478;6.158;2023-06-22T14:03:43;20.30;99.90
51500;DHT22;39101;53.478;6.158;2023-06-22T14:06:11;20.30;99.90
51500;DHT22;39101;53.478;6.158;2023-06-22T14:08:38;20.30;99.90
51500;DHT22;39101;53.478;6.158;2023-06-22T14:11:04;20.30;99.90
51500;DHT22;39101;53.478;6.158;2023-06-22T14:13:29;20.30;99.90
51500;DHT22;39101;53.478;6.158;2023-06-22T14:19:17;20.40;99.90
51500;DHT22;39101;53.478;6.158;2023-06-22T14:21:45;20.30;99.90
51500;DHT22;39101;53.478;6.158;2023-06-22T14:24:11;20.30;99.90
51500;DHT22;39101;53.478;6.158;2023-06-22T14:26:36;20.30;99.90
51500;DHT22;39101;53.478;6.158;2023-06-22T14:29:03;20.30;99.90
51500;DHT22;39101;53.478;6.158;2023-06-22T14:31:29;20.20;99.90
51500;DHT22;39101;53.478;6.158;2023-06-22T14:33:55;20.20;99.90
51500;DHT22;39101;53.478;6.158;2023-06-22T14:36:20;20.10;99.90
51500;DHT22;39101;53.478;6.158;2023-06-22T14:38:47;20.10;99.90
51500;DHT22;39101;53.478;6.158;2023-06-22T14:41:13;20.10;99.90
51500;DHT22;39101;53.478;6.158;2023-06-22T14:43:48;20.10;99.90
51500;DHT22;39101;53.478;6.158;2023-06-22T14:46:19;20.00;99.90
51500;DHT22;39101;53.478;6.158;2023-06-22T14:48:45;19.90;99.90
51500;DHT22;39101;53.478;6.158;2023-06-22T14:51:12;19.90;99.90
51500;DHT22;39101;53.478;6.158;2023-06-22T14:53:37;19.90;99.90
51500;DHT22;39101;53.478;6.158;2023-06-22T14:56:03;19.90;99.90
51500;DHT22;39101;53.478;6.158;2023-06-22T14:58:37;19.90;99.90
51500;DHT22;39101;53.478;6.158;2023-06-22T15:01:03;19.80;99.90
51500;DHT22;39101;53.478;6.158;2023-06-22T15:03:30;19.80;99.90
51500;DHT22;39101;53.478;6.158;2023-06-22T15:05:58;19.70;99.90
51500;DHT22;39101;53.478;6.158;2023-06-22T15:12:06;19.70;99.90
51500;DHT22;39101;53.478;6.158;2023-06-22T15:14:40;19.70;99.90
51500;DHT22;39101;53.478;6.158;2023-06-22T15:17:09;19.70;99.90
51500;DHT22;39101;53.478;6.158;2023-06-22T15:19:36;19.60;99.90
51500;DHT22;39101;53.478;6.158;2023-06-22T15:22:06;19.70;99.90
51500;DHT22;39101;53.478;6.158;2023-06-22T15:24:32;19.60;99.90
51500;DHT22;39101;53.478;6.158;2023-06-22T15:26:58;19.70;99.90
51500;DHT22;39101;53.478;6.158;2023-06-22T15:29:24;19.70;99.90
51500;DHT22;39101;53.478;6.158;2023-06-22T15:31:51;19.60;99.90
51500;DHT22;39101;53.478;6.158;2023-06-22T15:34:17;19.70;99.90
51500;DHT22;39101;53.478;6.158;2023-06-22T15:36:43;19.50;99.90
51500;DHT22;39101;53.478;6.158;2023-06-22T15:39:10;19.50;99.90
51500;DHT22;39101;53.478;6.158;2023-06-22T15:41:35;19.50;99.90
51500;DHT22;39101;53.478;6.158;2023-06-22T15:44:01;19.50;99.90
51500;DHT22;39101;53.478;6.158;2023-06-22T15:46:27;19.50;99.90
51500;DHT22;39101;53.478;6.158;2023-06-22T15:48:54;19.50;99.90
51500;DHT22;39101;53.478;6.158;2023-06-22T15:51:19;19.40;99.90
51500;DHT22;39101;53.478;6.158;2023-06-22T15:53:45;19.50;99.90
51500;DHT22;39101;53.478;6.158;2023-06-22T15:56:11;19.40;99.90